createdAt,value
2022-10-12T00:01:46.867Z,99035.78
2022-10-12T00:04:13.501Z,99032.22
2022-10-12T00:06:40.060Z,99035.31
2022-10-12T00:09:06.778Z,99035.00
2022-10-12T00:11:33.547Z,99029.69
2022-10-12T00:14:00.337Z,99012.94
2022-10-12T00:16:31.578Z,99034.81
2022-10-12T00:18:59.188Z,99037.25
2022-10-12T00:21:27.701Z,99032.84
2022-10-12T00:23:58.397Z,99027.75
2022-10-12T00:26:26.088Z,99034.94
2022-10-12T00:29:01.199Z,99047.09
2022-10-12T00:31:29.057Z,99042.97
2022-10-12T00:33:56.292Z,99043.34
2022-10-12T00:36:26.182Z,99042.75
2022-10-12T00:38:55.252Z,99041.66
2022-10-12T00:41:24.947Z,99046.72
2022-10-12T00:43:57.957Z,99046.06
2022-10-12T00:46:35.138Z,99041.66
2022-10-12T00:49:25.824Z,99042.97
2022-10-12T00:51:58.611Z,99039.97
2022-10-12T00:54:31.119Z,98997.28
2022-10-12T00:57:00.401Z,99010.91
2022-10-12T00:59:33.955Z,98982.59
2022-10-12T01:02:02.387Z,99023.13
2022-10-12T01:04:31.857Z,99032.59
2022-10-12T01:06:59.982Z,99026.53
2022-10-12T01:09:28.181Z,98988.28
2022-10-12T01:11:56.803Z,99000.44
2022-10-12T01:14:23.489Z,99015.13
2022-10-12T01:16:58.583Z,99020.19
2022-10-12T01:19:46.191Z,99033.66
2022-10-12T01:22:17.935Z,99016.75
2022-10-12T01:25:25.956Z,99030.66
2022-10-12T01:27:57.754Z,99014.22
2022-10-12T01:30:26.835Z,99037.69
2022-10-12T01:33:12.042Z,99040.63
2022-10-12T01:36:16.193Z,99034.97
2022-10-12T01:38:57.977Z,99029.31
2022-10-12T01:41:34.696Z,99037.34
2022-10-12T01:44:01.414Z,98994.41
2022-10-12T01:46:28.375Z,99038.16
2022-10-12T01:48:58.514Z,99010.13
2022-10-12T01:51:36.441Z,99044.06
2022-10-12T01:54:13.164Z,99041.97
2022-10-12T01:56:49.459Z,99051.44
2022-10-12T02:00:02.082Z,99048.88
2022-10-12T02:02:41.813Z,99014.22
2022-10-12T02:05:34.348Z,99049.09
2022-10-12T02:08:23.051Z,99040.84
2022-10-12T02:11:01.888Z,99049.00
2022-10-12T02:13:33.479Z,99030.50
2022-10-12T02:16:03.591Z,99060.53
2022-10-12T02:18:31.219Z,99023.78
2022-10-12T02:21:00.783Z,99015.13
2022-10-12T02:23:28.366Z,99063.91
2022-10-12T02:25:58.720Z,99058.28
2022-10-12T02:28:27.730Z,99053.41
2022-10-12T02:31:02.975Z,99054.09
2022-10-12T02:33:43.716Z,99058.84
2022-10-12T02:36:21.617Z,99044.38
2022-10-12T02:39:07.609Z,99048.50
2022-10-12T02:41:40.224Z,99054.22
2022-10-12T02:44:12.220Z,99060.94
2022-10-12T02:46:40.801Z,99053.16
2022-10-12T02:49:08.292Z,99059.25
2022-10-12T02:51:36.166Z,99065.78
2022-10-12T02:54:03.676Z,99061.78
2022-10-12T02:56:30.342Z,99027.63
2022-10-12T02:58:57.034Z,99057.03
2022-10-12T03:01:23.875Z,99053.97
2022-10-12T03:03:50.577Z,99063.97
2022-10-12T03:06:17.403Z,99026.50
2022-10-12T03:08:43.990Z,99053.03
2022-10-12T03:11:12.897Z,99058.47
2022-10-12T03:13:39.533Z,99022.03
2022-10-12T03:16:09.297Z,99056.72
2022-10-12T03:18:36.887Z,99058.84
2022-10-12T03:21:04.020Z,99020.59
2022-10-12T03:23:30.711Z,99017.50
2022-10-12T03:25:57.354Z,99058.34
2022-10-12T03:28:24.291Z,99042.56
2022-10-12T03:30:51.006Z,99051.72
2022-10-12T03:33:17.644Z,99035.31
2022-10-12T03:35:45.588Z,99060.00
2022-10-12T03:38:13.557Z,99028.94
2022-10-12T03:40:40.761Z,99050.19
2022-10-12T03:43:08.166Z,99040.06
2022-10-12T03:45:35.166Z,99040.91
2022-10-12T03:48:05.162Z,99035.22
2022-10-12T03:50:35.065Z,99037.19
2022-10-12T03:53:03.169Z,99059.75
2022-10-12T03:55:29.913Z,99047.50
2022-10-12T03:57:56.666Z,99048.34
2022-10-12T04:00:24.577Z,99042.28
2022-10-12T04:02:51.261Z,99039.56
2022-10-12T04:05:19.191Z,99064.53
2022-10-12T04:07:45.983Z,99044.88
2022-10-12T04:10:12.756Z,99060.78
2022-10-12T04:12:39.409Z,99064.25
2022-10-12T04:15:06.621Z,99008.16
2022-10-12T04:17:33.259Z,99043.59
2022-10-12T04:19:59.944Z,99017.03
2022-10-12T04:22:26.597Z,99047.72
2022-10-12T04:24:53.244Z,99063.59
2022-10-12T04:27:20.352Z,99038.25
2022-10-12T04:29:47.021Z,99035.53
2022-10-12T04:32:13.669Z,99028.34
2022-10-12T04:34:40.427Z,99043.78
2022-10-12T04:37:07.336Z,99071.47
2022-10-12T04:39:34.067Z,99040.63
2022-10-12T04:42:00.796Z,99043.69
2022-10-12T04:44:31.993Z,99043.69
2022-10-12T04:46:59.822Z,99040.53
2022-10-12T04:49:26.577Z,99074.13
2022-10-12T04:51:53.169Z,99061.75
2022-10-12T04:54:19.871Z,99060.03
2022-10-12T04:56:48.130Z,99072.31
2022-10-12T04:59:15.193Z,99056.81
2022-10-12T05:01:42.273Z,99067.06
2022-10-12T05:04:09.131Z,99067.91
2022-10-12T05:06:35.836Z,99063.16
2022-10-12T05:09:02.975Z,99095.97
2022-10-12T05:11:29.664Z,99061.53
2022-10-12T05:13:56.307Z,99067.91
2022-10-12T05:16:23.286Z,99088.72
2022-10-12T05:18:49.956Z,99093.41
2022-10-12T05:21:16.671Z,99081.19
2022-10-12T05:23:43.294Z,99098.44
2022-10-12T05:26:09.884Z,99048.56
2022-10-12T05:28:40.869Z,99080.78
2022-10-12T05:31:08.602Z,99093.66
2022-10-12T05:33:35.586Z,99082.41
2022-10-12T05:36:02.294Z,99081.16
2022-10-12T05:38:28.991Z,99070.22
2022-10-12T05:41:00.381Z,99078.84
2022-10-12T05:43:27.909Z,99079.56
2022-10-12T05:45:54.586Z,99081.69
2022-10-12T05:48:21.180Z,99079.38
2022-10-12T05:50:47.823Z,99099.16
2022-10-12T05:53:14.531Z,99117.50
2022-10-12T05:55:41.192Z,99102.19
2022-10-12T05:58:07.911Z,99131.44
2022-10-12T06:00:34.504Z,99103.69
2022-10-12T06:03:01.133Z,99136.88
2022-10-12T06:05:27.778Z,99100.19
2022-10-12T06:07:54.449Z,99120.63
2022-10-12T06:10:21.130Z,99125.69
2022-10-12T06:12:47.761Z,99143.38
2022-10-12T06:15:14.569Z,99141.94
2022-10-12T06:17:41.336Z,99136.34
2022-10-12T06:20:08.400Z,99138.50
2022-10-12T06:22:35.396Z,99146.09
2022-10-12T06:25:02.296Z,99134.19
2022-10-12T06:27:28.986Z,99146.75
2022-10-12T06:29:55.808Z,99132.47
2022-10-12T06:32:22.453Z,99139.91
2022-10-12T06:34:49.210Z,99156.78
2022-10-12T06:37:44.571Z,99122.78
2022-10-12T06:40:02.637Z,99148.53
2022-10-12T06:42:29.236Z,99155.00
2022-10-12T06:44:55.805Z,99146.06
2022-10-12T06:47:22.499Z,99134.09
2022-10-12T06:49:49.112Z,99141.97
2022-10-12T06:52:15.905Z,99160.31
2022-10-12T06:54:42.640Z,99152.16
2022-10-12T06:57:09.359Z,99160.19
2022-10-12T06:59:36.103Z,99165.00
2022-10-12T07:02:02.842Z,99127.22
2022-10-12T07:04:29.533Z,99180.78
2022-10-12T07:06:56.179Z,99156.00
2022-10-12T07:09:22.740Z,99148.03
2022-10-12T07:11:49.409Z,99179.31
2022-10-12T07:14:16.180Z,99164.41
2022-10-12T07:16:42.872Z,99172.81
2022-10-12T07:19:09.648Z,99139.19
2022-10-12T07:21:36.342Z,99161.44
2022-10-12T07:24:02.979Z,99188.56
2022-10-12T07:26:29.685Z,99173.44
2022-10-12T07:28:56.352Z,99169.88
2022-10-12T07:31:23.047Z,99172.00
2022-10-12T07:33:49.900Z,99177.03
2022-10-12T07:36:21.225Z,99155.59
2022-10-12T07:38:49.234Z,99173.19
2022-10-12T07:41:16.177Z,99196.88
2022-10-12T07:43:43.394Z,99193.91
2022-10-12T07:46:10.334Z,99183.16
2022-10-12T07:48:38.011Z,99161.69
2022-10-12T07:51:10.205Z,99183.03
2022-10-12T07:53:38.097Z,99189.97
2022-10-12T07:56:08.008Z,99197.19
2022-10-12T07:58:34.925Z,99181.06
2022-10-12T08:01:06.924Z,99171.66
2022-10-12T08:03:33.714Z,99189.75
2022-10-12T08:06:00.729Z,99201.81
2022-10-12T08:08:27.316Z,99189.84
2022-10-12T08:10:54.106Z,99182.88
2022-10-12T08:13:20.676Z,99202.78
2022-10-12T08:15:51.008Z,99198.53
2022-10-12T08:18:17.872Z,99174.56
2022-10-12T08:20:44.543Z,99156.00
2022-10-12T08:23:11.352Z,99173.56
2022-10-12T08:25:38.249Z,99174.34
2022-10-12T08:28:06.012Z,99178.72
2022-10-12T08:30:35.885Z,99186.53
2022-10-12T08:33:04.798Z,99184.16
2022-10-12T08:35:33.530Z,99158.78
2022-10-12T08:38:00.162Z,99172.94
2022-10-12T08:40:33.460Z,99179.97
2022-10-12T08:43:15.706Z,99167.19
2022-10-12T08:45:54.716Z,99182.13
2022-10-12T08:48:28.968Z,99190.00
2022-10-12T08:51:11.170Z,99181.88
2022-10-12T08:53:50.877Z,99182.13
2022-10-12T08:56:21.435Z,99189.47
2022-10-12T08:58:50.089Z,99185.38
2022-10-12T09:01:29.185Z,99189.53
2022-10-12T09:04:12.334Z,99192.09
2022-10-12T09:06:53.957Z,99189.34
2022-10-12T09:09:58.226Z,99197.53
2022-10-12T09:12:36.095Z,99197.59
2022-10-12T09:15:11.154Z,99196.81
2022-10-12T09:17:46.594Z,99194.97
2022-10-12T09:20:21.438Z,99199.09
2022-10-12T09:22:58.720Z,99189.06
2022-10-12T09:25:27.937Z,99199.97
2022-10-12T09:28:06.907Z,99190.03
2022-10-12T09:30:41.735Z,99167.25
2022-10-12T09:33:23.750Z,99189.81
2022-10-12T09:35:51.363Z,99154.78
2022-10-12T09:38:18.214Z,99169.41
2022-10-12T09:40:45.777Z,99175.88
2022-10-12T09:43:14.624Z,99165.56
2022-10-12T09:45:42.530Z,99178.25
2022-10-12T09:48:11.316Z,99188.59
2022-10-12T09:51:05.037Z,99183.44
2022-10-12T09:53:43.467Z,99174.34
2022-10-12T09:56:22.982Z,99171.16
2022-10-12T09:58:53.522Z,99177.28
2022-10-12T10:01:26.749Z,99176.50
2022-10-12T10:04:14.175Z,99173.69
2022-10-12T10:06:44.175Z,99172.19
2022-10-12T10:09:31.077Z,99180.34
2022-10-12T10:12:11.440Z,99149.81
2022-10-12T10:14:38.478Z,99144.94
2022-10-12T10:17:05.270Z,99158.75
2022-10-12T10:19:31.955Z,99149.03
2022-10-12T10:22:05.775Z,99144.16
2022-10-12T10:24:34.121Z,99159.00
2022-10-12T10:27:29.036Z,99152.00
2022-10-12T10:30:32.055Z,99138.28
2022-10-12T10:33:17.722Z,99142.50
2022-10-12T10:36:07.085Z,99143.88
2022-10-12T10:38:53.395Z,99141.66
2022-10-12T10:41:25.247Z,99141.50
2022-10-12T10:43:51.938Z,99106.47
2022-10-12T10:46:25.371Z,99137.81
2022-10-12T10:49:06.929Z,99134.22
2022-10-12T10:51:53.915Z,99108.94
2022-10-12T10:54:23.727Z,99132.53
2022-10-12T10:56:53.361Z,99112.28
2022-10-12T10:59:45.705Z,99119.69
2022-10-12T11:02:22.332Z,99118.19
2022-10-12T11:04:54.059Z,99120.81
2022-10-12T11:07:35.504Z,99105.03
2022-10-12T11:10:09.382Z,99110.66
2022-10-12T11:12:41.420Z,99095.09
2022-10-12T11:15:18.693Z,99074.59
2022-10-12T11:17:49.973Z,99101.56
2022-10-12T11:20:30.535Z,99108.03
2022-10-12T11:23:14.178Z,99086.91
2022-10-12T11:25:49.293Z,99068.50
2022-10-12T11:28:16.824Z,99091.66
2022-10-12T11:30:51.716Z,99076.50
2022-10-12T11:33:24.811Z,99105.28
2022-10-12T11:35:54.726Z,99083.81
2022-10-12T11:38:32.925Z,99096.94
2022-10-12T11:41:31.082Z,99086.19
2022-10-12T11:44:00.987Z,99096.47
2022-10-12T11:46:37.468Z,99092.69
2022-10-12T11:49:35.502Z,99099.53
2022-10-12T11:52:08.662Z,99093.44
2022-10-12T11:55:13.658Z,99094.69
2022-10-12T11:57:40.627Z,99076.97
2022-10-12T12:00:22.853Z,99085.34
2022-10-12T12:03:10.654Z,99079.28
2022-10-12T12:05:37.573Z,99082.03
2022-10-12T12:08:04.382Z,99057.78
2022-10-12T12:10:34.967Z,99075.97
2022-10-12T12:13:13.116Z,99073.00
2022-10-12T12:15:41.998Z,99066.31
2022-10-12T12:18:13.909Z,99075.44
2022-10-12T12:20:43.582Z,99067.00
2022-10-12T12:23:25.990Z,99069.31
2022-10-12T12:26:17.655Z,99063.09
2022-10-12T12:28:44.364Z,99065.56
2022-10-12T12:31:37.611Z,99060.47
2022-10-12T12:34:07.373Z,99060.09
2022-10-12T12:36:46.531Z,99067.69
2022-10-12T12:39:35.025Z,99047.44
2022-10-12T12:42:03.623Z,99058.41
2022-10-12T12:44:42.947Z,99062.06
2022-10-12T12:50:00.832Z,99052.34
2022-10-12T12:52:31.855Z,99061.66
2022-10-12T12:55:10.581Z,99061.81
2022-10-12T12:58:01.564Z,99069.81
2022-10-12T13:01:00.643Z,99078.03
2022-10-12T13:03:55.208Z,99071.97
2022-10-12T13:06:59.553Z,99076.81
2022-10-12T13:09:26.148Z,99070.28
2022-10-12T13:11:55.693Z,99071.31
2022-10-12T13:14:55.776Z,99050.84
2022-10-12T13:17:34.475Z,99071.31
2022-10-12T13:20:17.361Z,99070.63
2022-10-12T13:22:47.274Z,99052.81
2022-10-12T13:25:39.272Z,99051.22
2022-10-12T13:28:12.474Z,99060.50
2022-10-12T13:30:46.248Z,99070.94
2022-10-12T13:33:21.597Z,99023.75
2022-10-12T13:36:26.524Z,99066.72
2022-10-12T13:38:58.314Z,99066.56
2022-10-12T13:41:30.288Z,99049.31
2022-10-12T13:44:07.617Z,99067.22
2022-10-12T13:46:48.616Z,99065.56
2022-10-12T13:49:25.857Z,99066.91
2022-10-12T13:52:12.193Z,99038.31
2022-10-12T13:54:41.300Z,99050.94
2022-10-12T13:57:21.364Z,99060.53
2022-10-12T13:59:53.978Z,99056.94
2022-10-12T14:02:27.536Z,99061.06
2022-10-12T14:04:56.578Z,99024.19
2022-10-12T14:07:35.762Z,99057.69
2022-10-12T14:10:19.288Z,99027.94
2022-10-12T14:12:48.598Z,99030.50
2022-10-12T14:15:16.049Z,99043.53
2022-10-12T14:17:47.199Z,99058.25
2022-10-12T14:20:27.158Z,99056.72
2022-10-12T14:22:54.855Z,99026.94
2022-10-12T14:25:28.319Z,99052.69
2022-10-12T14:28:00.770Z,99004.78
2022-10-12T14:30:51.498Z,99034.31
2022-10-12T14:33:18.075Z,99063.41
2022-10-12T14:35:49.707Z,99024.25
2022-10-12T14:38:45.803Z,99043.97
2022-10-12T14:41:49.049Z,99058.06
2022-10-12T14:44:18.730Z,99055.00
2022-10-12T14:46:54.415Z,99052.47
2022-10-12T14:49:26.865Z,99064.72
2022-10-12T14:51:55.446Z,99028.88
2022-10-12T14:54:22.506Z,99039.41
2022-10-12T14:56:49.207Z,99038.16
2022-10-12T14:59:16.012Z,99029.34
2022-10-12T15:01:44.277Z,99067.38
2022-10-12T15:04:14.887Z,99043.97
2022-10-12T15:06:41.638Z,99032.31
2022-10-12T15:09:08.287Z,99024.38
2022-10-12T15:11:34.907Z,99053.53
2022-10-12T15:14:01.517Z,99044.63
2022-10-12T15:16:29.127Z,99065.84
2022-10-12T15:18:55.905Z,99047.63
2022-10-12T15:21:22.687Z,99077.00
2022-10-12T15:23:50.355Z,99049.75
2022-10-12T15:26:18.647Z,99058.44
2022-10-12T15:28:45.597Z,99049.88
2022-10-12T15:31:17.955Z,99063.28
2022-10-12T15:33:45.196Z,99077.22
2022-10-12T15:36:12.094Z,99055.84
2022-10-12T15:38:38.838Z,99062.00
2022-10-12T15:41:05.966Z,99048.81
2022-10-12T15:43:34.610Z,99050.06
2022-10-12T15:46:03.626Z,99040.84
2022-10-12T15:48:30.259Z,99047.84
2022-10-12T15:50:57.054Z,99064.84
2022-10-12T15:53:25.488Z,99042.16
2022-10-12T15:55:54.241Z,99079.97
2022-10-12T15:58:21.715Z,99083.75
2022-10-12T16:00:48.800Z,99080.16
2022-10-12T16:03:22.920Z,99071.97
2022-10-12T16:05:52.577Z,99080.59
2022-10-12T16:08:19.171Z,99056.25
2022-10-12T16:10:46.239Z,99049.31
2022-10-12T16:13:14.071Z,99043.88
2022-10-12T16:15:41.989Z,99092.13
2022-10-12T16:20:53.818Z,99080.19
2022-10-12T16:23:25.484Z,99098.44
2022-10-12T16:25:52.225Z,99061.09
2022-10-12T16:28:19.610Z,99097.84
2022-10-12T16:30:46.500Z,99082.94
2022-10-12T16:33:13.120Z,99082.94
2022-10-12T16:35:40.743Z,99090.06
2022-10-12T16:38:09.043Z,99099.91
2022-10-12T16:40:38.109Z,99088.78
2022-10-12T16:43:04.750Z,99065.50
2022-10-12T16:45:31.417Z,99095.94
2022-10-12T16:47:58.023Z,99077.25
2022-10-12T16:50:25.206Z,99105.78
2022-10-12T16:52:52.760Z,99110.19
2022-10-12T16:55:20.372Z,99088.34
2022-10-12T16:57:47.426Z,99083.75
2022-10-12T17:00:19.528Z,99094.25
2022-10-12T17:02:47.344Z,99065.47
2022-10-12T17:05:14.149Z,99105.59
2022-10-12T17:07:40.781Z,99077.63
2022-10-12T17:10:07.918Z,99094.88
2022-10-12T17:12:35.642Z,99060.00
2022-10-12T17:15:02.330Z,99077.03
2022-10-12T17:17:28.963Z,99122.81
2022-10-12T17:19:55.662Z,99085.44
2022-10-12T17:22:22.404Z,99136.25
2022-10-12T17:24:49.079Z,99122.59
2022-10-12T17:27:16.906Z,99105.59
2022-10-12T17:29:44.040Z,99123.03
2022-10-12T17:32:12.173Z,99148.84
2022-10-12T17:34:42.509Z,99142.97
2022-10-12T17:37:13.712Z,99140.66
2022-10-12T17:39:46.172Z,99146.31
2022-10-12T17:42:13.612Z,99143.56
2022-10-12T17:44:40.508Z,99108.06
2022-10-12T17:47:07.675Z,99148.59
2022-10-12T17:49:34.290Z,99131.13
2022-10-12T17:52:00.898Z,99125.47
2022-10-12T17:54:27.673Z,99123.97
2022-10-12T17:56:55.888Z,99115.53
2022-10-12T17:59:23.018Z,99138.66
2022-10-12T18:01:50.502Z,99154.47
2022-10-12T18:04:17.624Z,99131.28
2022-10-12T18:06:45.845Z,99134.88
2022-10-12T18:09:13.111Z,99134.81
2022-10-12T18:11:40.195Z,99107.06
2022-10-12T18:14:09.594Z,99126.00
2022-10-12T18:16:36.942Z,99140.28
2022-10-12T18:19:07.316Z,99142.41
2022-10-12T18:21:34.278Z,99102.69
2022-10-12T18:24:07.014Z,99127.06
2022-10-12T18:26:33.872Z,99116.09
2022-10-12T18:29:02.064Z,99137.53
2022-10-12T18:31:30.229Z,99127.38
2022-10-12T18:33:57.875Z,99097.72
2022-10-12T18:36:25.201Z,99120.38
2022-10-12T18:38:52.148Z,99135.44
2022-10-12T18:41:25.797Z,99124.72
2022-10-12T18:44:00.904Z,99146.06
2022-10-12T18:46:29.454Z,99129.41
2022-10-12T18:48:56.608Z,99148.75
2022-10-12T18:51:27.704Z,99152.09
2022-10-12T18:53:55.345Z,99112.91
2022-10-12T18:56:22.574Z,99127.38
2022-10-12T18:58:49.570Z,99127.38
2022-10-12T19:01:22.245Z,99155.38
2022-10-12T19:03:49.194Z,99129.59
2022-10-12T19:06:19.470Z,99152.31
2022-10-12T19:08:48.140Z,99169.03
2022-10-12T19:11:17.666Z,99146.09
2022-10-12T19:13:50.850Z,99152.59
2022-10-12T19:16:18.074Z,99143.31
2022-10-12T19:18:44.828Z,99127.25
2022-10-12T19:21:20.578Z,99142.31
2022-10-12T19:23:47.163Z,99131.72
2022-10-12T19:26:16.952Z,99156.16
2022-10-12T19:28:44.000Z,99137.09
2022-10-12T19:31:16.991Z,99185.00
2022-10-12T19:33:44.289Z,99179.69
2022-10-12T19:36:13.119Z,99185.13
2022-10-12T19:38:40.153Z,99150.56
2022-10-12T19:41:07.482Z,99156.06
2022-10-12T19:43:37.497Z,99145.81
2022-10-12T19:46:05.875Z,99155.09
2022-10-12T19:48:32.886Z,99162.41
2022-10-12T19:51:05.078Z,99152.28
2022-10-12T19:53:32.271Z,99151.81
2022-10-12T19:56:14.019Z,99171.06
2022-10-12T19:58:45.425Z,99199.31
2022-10-12T20:01:15.250Z,99155.88
2022-10-12T20:03:47.464Z,99201.03
2022-10-12T20:06:14.510Z,99152.81
2022-10-12T20:08:43.098Z,99155.25
2022-10-12T20:11:15.603Z,99203.53
2022-10-12T20:13:45.744Z,99174.94
2022-10-12T20:16:13.500Z,99186.03
2022-10-12T20:18:40.280Z,99191.59
2022-10-12T20:21:09.950Z,99191.75
2022-10-12T20:23:38.965Z,99195.88
2022-10-12T20:26:08.669Z,99203.75
2022-10-12T20:28:36.640Z,99188.06
2022-10-12T20:31:05.522Z,99202.56
2022-10-12T20:33:33.676Z,99199.09
2022-10-12T20:36:00.621Z,99197.50
2022-10-12T20:38:27.691Z,99150.41
2022-10-12T20:41:08.037Z,99201.72
2022-10-12T20:43:36.639Z,99207.25
2022-10-12T20:46:04.681Z,99183.91
2022-10-12T20:48:32.333Z,99204.81
2022-10-12T20:50:59.443Z,99211.06
2022-10-12T20:53:26.403Z,99187.00
2022-10-12T20:55:53.717Z,99189.56
2022-10-12T20:58:24.322Z,99150.50
2022-10-12T21:01:07.845Z,99199.00
2022-10-12T21:03:34.748Z,99179.34
2022-10-12T21:06:10.852Z,99187.28
2022-10-12T21:08:37.803Z,99200.50
2022-10-12T21:11:06.040Z,99202.84
2022-10-12T21:13:34.600Z,99195.97
2022-10-12T21:16:01.668Z,99192.44
2022-10-12T21:18:32.721Z,99186.72
2022-10-12T21:21:11.782Z,99210.22
2022-10-12T21:23:39.901Z,99190.06
2022-10-12T21:26:18.585Z,99180.41
2022-10-12T21:28:46.321Z,99207.75
2022-10-12T21:31:13.919Z,99217.09
2022-10-12T21:33:40.798Z,99175.50
2022-10-12T21:36:11.752Z,99203.25
2022-10-12T21:38:39.250Z,99189.72
2022-10-12T21:41:08.028Z,99194.63
2022-10-12T21:43:36.151Z,99171.66
2022-10-12T21:46:08.514Z,99199.69
2022-10-12T21:48:35.679Z,99209.44
2022-10-12T21:51:03.843Z,99205.31
2022-10-12T21:53:30.909Z,99160.63
2022-10-12T21:55:57.730Z,99195.78
2022-10-12T21:58:24.437Z,99142.56
2022-10-12T22:00:51.138Z,99154.06
2022-10-12T22:03:17.825Z,99171.91
2022-10-12T22:05:44.992Z,99197.44
2022-10-12T22:08:11.764Z,99165.00
2022-10-12T22:10:39.601Z,99127.06
2022-10-12T22:13:07.423Z,99189.56
2022-10-12T22:15:35.498Z,99180.53
2022-10-12T22:18:02.182Z,99201.31
2022-10-12T22:20:28.817Z,99166.34
2022-10-12T22:22:55.416Z,99198.75
2022-10-12T22:25:22.059Z,99196.13
2022-10-12T22:27:48.825Z,99162.38
2022-10-12T22:30:15.581Z,99158.25
2022-10-12T22:32:42.429Z,99154.69
2022-10-12T22:35:09.413Z,99162.16
2022-10-12T22:37:36.107Z,99154.75
2022-10-12T22:40:04.087Z,99192.03
2022-10-12T22:42:30.828Z,99183.13
2022-10-12T22:44:57.581Z,99178.06
2022-10-12T22:47:25.738Z,99173.34
2022-10-12T22:49:52.377Z,99176.84
2022-10-12T22:52:19.181Z,99169.00
2022-10-12T22:54:46.343Z,99160.59
2022-10-12T22:57:12.945Z,99142.88
2022-10-12T22:59:41.085Z,99178.66
2022-10-12T23:02:07.766Z,99185.88
2022-10-12T23:04:34.642Z,99164.31
2022-10-12T23:07:01.190Z,99160.94
2022-10-12T23:09:27.756Z,99163.00
2022-10-12T23:11:54.384Z,99177.34
2022-10-12T23:14:21.122Z,99174.16
2022-10-12T23:16:47.738Z,99185.78
2022-10-12T23:19:14.401Z,99171.59
2022-10-12T23:21:41.059Z,99174.16
2022-10-12T23:24:08.240Z,99160.28
2022-10-12T23:26:35.005Z,99168.41
2022-10-12T23:29:01.893Z,99171.97
2022-10-12T23:31:30.765Z,99184.97
2022-10-12T23:34:02.766Z,99188.53
2022-10-12T23:36:30.323Z,99160.22
2022-10-12T23:39:00.354Z,99184.84
2022-10-12T23:41:27.053Z,99182.00
2022-10-12T23:43:53.623Z,99145.72
2022-10-12T23:46:20.330Z,99169.19
2022-10-12T23:48:46.995Z,99159.72
2022-10-12T23:51:13.634Z,99138.66
2022-10-12T23:53:43.621Z,99182.75
2022-10-12T23:56:10.776Z,99192.47
2022-10-12T23:58:37.523Z,99186.69
